Time;durP1;ratioP1;P1;durP2;ratioP2;P2;SDS_P1;SDS_P2;PMS_P1;PMS_P2;Temp;Humidity;BMP_temperature;BMP_pressure;BME280_temperature;BME280_humidity;BME280_pressure;Samples;Min_cycle;Max_cycle;Signal;HPM_P1;HPM_P2
2024/04/28 00:02:10;;;;;;;0.10;0.10;;;;;;;-145.06;100.00;51938.59;11302954;26;20333;-65
2024/04/28 00:07:10;;;;;;;0.10;0.10;;;;;;;-145.06;100.00;51993.25;11294527;26;20010;-66
2024/04/28 00:12:11;;;;;;;0.10;0.10;;;;;;;-145.06;100.00;51940.63;11297649;26;21122;-66
2024/04/28 00:17:11;;;;;;;0.10;0.10;;;;;;;-145.06;100.00;51977.06;11292058;26;20235;-67
2024/04/28 00:22:11;;;;;;;0.05;0.05;;;;;;;-145.06;100.00;51989.19;11291081;26;20007;-66
2024/04/28 00:27:11;;;;;;;0.10;0.10;;;;;;;-145.06;100.00;52025.63;11298661;26;20073;-66
2024/04/28 00:32:12;;;;;;;0.00;0.00;;;;;;;-145.06;100.00;52047.91;11307561;26;20026;-66
2024/04/28 00:37:12;;;;;;;0.10;0.10;;;;;;;-145.06;100.00;52088.38;11292442;26;20008;-66
2024/04/28 00:42:12;;;;;;;0.00;0.00;;;;;;;-145.06;100.00;52080.28;11309975;26;20239;-66
2024/04/28 00:47:13;;;;;;;0.00;0.00;;;;;;;-145.06;100.00;52104.56;11301635;26;20009;-67
2024/04/28 00:52:14;;;;;;;0.10;0.10;;;;;;;-145.06;100.00;52124.81;11301645;25;20074;-66
2024/04/28 00:57:15;;;;;;;0.10;0.10;;;;;;;-145.06;100.00;52173.41;11302649;26;20468;-67
2024/04/28 01:02:16;;;;;;;0.00;0.00;;;;;;;-145.06;100.00;52213.88;11300945;26;20017;-66
2024/04/28 01:07:16;;;;;;;0.10;0.10;;;;;;;-145.06;100.00;52230.09;11295486;26;19999;-66
2024/04/28 01:12:19;;;;;;;0.10;0.10;;;;;;;-145.06;100.00;52262.47;11292680;26;20348;-67
2024/04/28 01:17:19;;;;;;;0.10;0.10;;;;;;;-145.06;100.00;52294.84;11311369;26;20400;-66
2024/04/28 01:22:19;;;;;;;0.10;0.10;;;;;;;-145.06;100.00;52256.41;11325912;26;19998;-66
2024/04/28 01:27:19;;;;;;;0.10;0.10;;;;;;;-145.06;100.00;52300.94;11309961;26;20070;-66
2024/04/28 01:32:20;;;;;;;0.10;0.10;;;;;;;-145.06;100.00;52323.19;11305303;26;19999;-66
2024/04/28 01:37:20;;;;;;;0.10;0.10;;;;;;;-145.06;100.00;52355.59;11304593;26;20010;-67
2024/04/28 01:42:20;;;;;;;0.08;0.08;;;;;;;-145.06;100.00;52365.72;11287586;26;20017;-67
2024/04/28 01:47:21;;;;;;;0.00;0.00;;;;;;;-145.06;100.00;52373.81;11295573;26;20042;-67
2024/04/28 01:52:21;;;;;;;0.10;0.10;;;;;;;-145.06;100.00;52398.09;11295613;26;20010;-66
2024/04/28 01:57:21;;;;;;;0.10;0.10;;;;;;;-145.06;100.00;52402.16;11307449;26;20030;-67
2024/04/28 02:02:21;;;;;;;0.10;0.10;;;;;;;-145.06;100.00;52400.13;11304316;26;19999;-67
2024/04/28 02:07:22;;;;;;;0.10;0.10;;;;;;;-145.06;100.00;52394.06;11303199;26;20018;-65
2024/04/28 02:12:22;;;;;;;0.10;0.10;;;;;;;-145.06;100.00;52416.31;11306495;26;20046;-66
2024/04/28 02:17:22;;;;;;;0.10;0.10;;;;;;;-145.06;100.00;52426.44;11286288;26;20002;-65
2024/04/28 02:22:23;;;;;;;0.10;0.10;;;;;;;-145.06;100.00;52414.28;11316013;26;20022;-66
2024/04/28 02:27:23;;;;;;;0.10;0.10;;;;;;;-145.06;100.00;52450.75;11287465;26;20405;-67
2024/04/28 02:32:23;;;;;;;0.00;0.00;;;;;;;-145.06;100.00;52446.69;11287353;26;20015;-67
2024/04/28 02:37:23;;;;;;;0.10;0.10;;;;;;;-145.06;100.00;52450.75;11295599;26;20013;-66
2024/04/28 02:42:24;;;;;;;0.00;0.00;;;;;;;-145.06;100.00;52470.97;11299797;26;20521;-66
2024/04/28 02:52:43;;;;;;;0.00;0.00;;;;;;;-145.06;100.00;52475.03;11305520;26;20014;-66
2024/04/28 02:57:43;;;;;;;0.00;0.00;;;;;;;-145.06;100.00;52489.19;11300835;26;20006;-66
2024/04/28 03:02:43;;;;;;;0.10;0.10;;;;;;;-145.06;100.00;52479.06;11305651;26;20167;-66
2024/04/28 03:07:44;;;;;;;0.00;0.00;;;;;;;-145.06;100.00;52487.19;11310453;26;20450;-66
2024/04/28 03:12:45;;;;;;;0.07;0.07;;;;;;;-145.06;100.00;52491.22;11312398;26;20356;-67
2024/04/28 03:17:45;;;;;;;0.00;0.00;;;;;;;-145.06;100.00;52511.47;11301372;26;20014;-67
2024/04/28 03:22:51;;;;;;;0.00;0.00;;;;;;;-145.06;100.00;52517.53;11295619;26;20016;-65
2024/04/28 03:27:51;;;;;;;0.00;0.00;;;;;;;-145.06;100.00;52507.41;11282930;26;20031;-66
2024/04/28 03:32:51;;;;;;;0.10;0.10;;;;;;;-145.06;100.00;52539.81;11296320;26;20453;-66
2024/04/28 03:37:52;;;;;;;0.00;0.00;;;;;;;-145.06;100.00;52590.44;11282735;26;20012;-65
2024/04/28 03:42:52;;;;;;;0.10;0.10;;;;;;;-145.06;100.00;52543.84;11301922;26;20010;-66
2024/04/28 03:47:52;;;;;;;0.10;0.10;;;;;;;-145.06;100.00;52568.16;11321973;26;20009;-66
2024/04/28 03:52:53;;;;;;;0.00;0.00;;;;;;;-145.06;100.00;52556.00;11297377;26;20002;-66
2024/04/28 03:57:53;;;;;;;0.10;0.10;;;;;;;-145.06;100.00;52521.59;11289425;26;20333;-66
2024/04/28 04:02:53;;;;;;;0.00;0.00;;;;;;;-145.06;100.00;52473.00;11311823;26;20492;-66
2024/04/28 04:07:53;;;;;;;0.10;0.10;;;;;;;-145.06;100.00;52477.06;11316847;26;20032;-67
2024/04/28 04:12:54;;;;;;;0.10;0.10;;;;;;;-145.06;100.00;52442.63;11319540;26;20497;-66
2024/04/28 04:17:54;;;;;;;0.00;0.00;;;;;;;-145.06;100.00;52418.34;11312750;26;20113;-67
2024/04/28 04:22:54;;;;;;;0.10;0.10;;;;;;;-145.06;97.59;52410.25;11306124;26;20398;-66
2024/04/28 04:27:55;;;;;;;0.10;0.10;;;;;;;-145.06;94.15;52436.56;11304700;26;20014;-66
2024/04/28 04:32:55;;;;;;;0.10;0.10;;;;;;;-145.06;91.53;52353.56;11296600;26;20087;-67
2024/04/28 04:37:55;;;;;;;0.10;0.10;;;;;;;-145.06;83.97;52300.94;11311726;26;19998;-67
2024/04/28 04:42:55;;;;;;;0.10;0.10;;;;;;;-145.06;78.59;52236.16;11306853;26;20002;-66
2024/04/28 04:47:56;;;;;;;0.10;0.10;;;;;;;-145.06;71.21;52252.34;11308057;26;20538;-66
2024/04/28 04:52:56;;;;;;;0.10;0.10;;;;;;;-145.06;66.91;52219.97;11309946;26;20377;-67
2024/04/28 04:57:56;;;;;;;0.10;0.10;;;;;;;-145.06;62.15;52187.56;11302510;26;20010;-67
2024/04/28 05:02:57;;;;;;;0.10;0.10;;;;;;;-145.06;59.42;52143.03;11311879;26;20474;-67
2024/04/28 05:07:57;;;;;;;0.00;0.00;;;;;;;-145.06;56.94;52134.94;11300598;26;20087;-68
2024/04/28 05:12:57;;;;;;;0.00;0.00;;;;;;;-145.06;56.99;52009.44;11322502;26;20006;-68
2024/04/28 05:17:58;;;;;;;0.00;0.00;;;;;;;-145.06;53.88;52005.38;11314951;26;19998;-67
2024/04/28 05:22:58;;;;;;;0.00;0.00;;;;;;;-145.06;50.20;52037.78;11320831;26;20002;-67
2024/04/28 05:27:59;;;;;;;0.10;0.10;;;;;;;-145.06;49.38;51997.28;11317464;26;19999;-69
2024/04/28 05:32:59;;;;;;;0.00;0.00;;;;;;;-145.06;47.89;52019.56;11305967;26;20361;-68
2024/04/28 05:37:59;;;;;;;0.03;0.03;;;;;;;-145.06;47.21;52033.72;11312180;26;20078;-69
2024/04/28 05:42:59;;;;;;;0.00;0.00;;;;;;;-145.06;47.07;52001.34;11303462;26;19998;-68
2024/04/28 05:48:00;;;;;;;0.00;0.00;;;;;;;-145.06;46.69;52088.38;11321143;26;19999;-68
2024/04/28 05:53:00;;;;;;;0.10;0.10;;;;;;;-145.06;49.88;52300.94;11295418;26;20013;-68
2024/04/28 05:58:01;;;;;;;0.00;0.00;;;;;;;-145.06;55.25;52462.88;11298845;26;20021;-68
2024/04/28 06:03:10;;;;;;;0.00;0.00;;;;;;;-145.06;55.70;52576.25;11304885;26;20002;-68
2024/04/28 06:08:10;;;;;;;0.00;0.00;;;;;;;-145.06;55.39;52624.84;11293081;26;19998;-68
2024/04/28 06:13:10;;;;;;;0.10;0.10;;;;;;;-145.06;55.91;52628.88;11314224;26;20440;-68
2024/04/28 06:18:11;;;;;;;0.00;0.00;;;;;;;-145.06;57.32;52556.00;11304209;26;20002;-68
2024/04/28 06:23:11;;;;;;;0.10;0.10;;;;;;;-145.06;53.35;52549.94;11299063;26;20013;-67
2024/04/28 06:28:11;;;;;;;0.08;0.08;;;;;;;-145.06;54.12;52592.44;11307094;26;20017;-69
2024/04/28 06:33:11;;;;;;;0.00;0.00;;;;;;;-145.06;56.04;52558.03;11304328;26;20015;-68
2024/04/28 06:38:13;;;;;;;0.00;0.00;;;;;;;-145.06;53.18;52507.41;11294015;26;20227;-68
2024/04/28 06:43:13;;;;;;;0.00;0.00;;;;;;;-145.06;51.77;52434.53;11294203;26;20002;-68
2024/04/28 06:48:13;;;;;;;0.00;0.00;;;;;;;-145.06;48.98;52321.19;11305750;26;20014;-68
2024/04/28 06:53:14;;;;;;;0.00;0.00;;;;;;;-145.06;47.93;52203.75;11305041;26;20010;-70
2024/04/28 06:58:14;;;;;;;0.00;0.00;;;;;;;-145.06;46.00;52315.09;11302045;26;20052;-69
2024/04/28 07:03:14;;;;;;;0.00;0.00;;;;;;;-145.06;47.08;52337.38;11323547;26;20038;-69
2024/04/28 07:08:14;;;;;;;0.07;0.07;;;;;;;-145.06;47.72;52499.31;11303846;25;20013;-70
2024/04/28 07:13:15;;;;;;;0.00;0.00;;;;;;;-145.06;47.44;52479.06;11316811;26;20022;-69
2024/04/28 07:18:18;;;;;;;0.10;0.10;;;;;;;-145.06;47.28;52452.75;11321037;25;19998;-69
2024/04/28 07:23:21;;;;;;;0.05;0.05;;;;;;;-145.06;48.55;52438.59;11301830;26;20160;-70
2024/04/28 07:28:21;;;;;;;0.00;0.00;;;;;;;-145.06;50.81;52351.53;11319457;26;20455;-69
2024/04/28 07:33:22;;;;;;;0.10;0.10;;;;;;;-145.06;49.20;52371.78;11343022;26;20071;-69
2024/04/28 07:38:22;;;;;;;0.00;0.00;;;;;;;-145.06;46.32;52402.16;11311769;26;20013;-70
2024/04/28 07:43:22;;;;;;;0.00;0.00;;;;;;;-145.06;45.77;52224.00;11313204;26;20471;-70
2024/04/28 07:48:23;;;;;;;0.10;0.10;;;;;;;-145.06;43.36;52238.19;11306870;26;20411;-70
2024/04/28 07:53:23;;;;;;;0.10;0.10;;;;;;;-145.06;43.09;52242.22;11331295;26;20089;-70
2024/04/28 07:58:24;;;;;;;0.00;0.00;;;;;;;-145.06;43.13;52219.97;11325562;26;20018;-70
2024/04/28 08:03:25;;;;;;;0.00;0.00;;;;;;;-145.06;44.84;52157.22;11321036;26;20013;-71
2024/04/28 08:08:25;;;;;;;0.10;0.10;;;;;;;-145.06;43.22;52191.63;11302281;26;20451;-70
2024/04/28 08:13:25;;;;;;;0.00;0.00;;;;;;;-145.06;44.04;52274.63;11322003;26;19998;-71
2024/04/28 08:18:27;;;;;;;0.00;0.00;;;;;;;-145.06;43.84;52244.25;11350861;26;20017;-71
2024/04/28 08:23:27;;;;;;;0.00;0.00;;;;;;;-145.06;42.38;52365.72;11322663;26;20101;-70
2024/04/28 08:28:28;;;;;;;0.00;0.00;;;;;;;-145.06;44.79;52309.03;11306990;25;20014;-70
2024/04/28 08:33:28;;;;;;;0.10;0.10;;;;;;;-145.06;45.09;52361.66;11323357;26;20424;-69
2024/04/28 08:38:29;;;;;;;0.10;0.10;;;;;;;-145.06;46.63;52313.06;11310837;26;20341;-70
2024/04/28 08:43:30;;;;;;;0.32;0.20;;;;;;;-145.06;47.08;52377.84;11294194;26;19999;-69
2024/04/28 08:48:31;;;;;;;0.10;0.10;;;;;;;-145.06;48.01;52400.13;11335971;26;20485;-69
2024/04/28 08:53:35;;;;;;;0.00;0.00;;;;;;;-145.06;47.75;52304.97;11304952;26;20003;-70
2024/04/28 08:58:35;;;;;;;0.10;0.10;;;;;;;-145.06;48.10;52300.94;11309196;26;19998;-71
2024/04/28 09:03:37;;;;;;;0.10;0.10;;;;;;;-145.06;50.57;52207.81;11305536;26;19998;-70
2024/04/28 09:08:38;;;;;;;0.00;0.00;;;;;;;-145.06;52.36;52191.63;11297186;26;20411;-70
2024/04/28 09:13:38;;;;;;;0.00;0.00;;;;;;;-145.06;48.87;52230.09;11316658;26;20020;-69
2024/04/28 09:18:39;;;;;;;0.00;0.00;;;;;;;-145.06;50.88;52203.75;11291865;26;20007;-70
2024/04/28 09:23:39;;;;;;;0.00;0.00;;;;;;;-145.06;47.91;52183.53;11316070;26;20002;-69
2024/04/28 09:28:39;;;;;;;0.00;0.00;;;;;;;-145.06;48.01;52185.53;11298590;26;20345;-69
2024/04/28 09:33:40;;;;;;;0.00;0.00;;;;;;;-145.06;46.34;52155.19;11292109;26;20552;-69
2024/04/28 09:38:42;;;;;;;0.00;0.00;;;;;;;-145.06;42.81;52228.06;11288838;26;20063;-69
2024/04/28 09:43:43;;;;;;;0.00;0.00;;;;;;;-145.06;41.81;52262.47;11307569;26;20474;-69
2024/04/28 09:48:45;;;;;;;0.00;0.00;;;;;;;-145.06;41.89;52302.97;11315439;26;20023;-70
2024/04/28 09:53:48;;;;;;;0.10;0.10;;;;;;;-145.06;41.55;52398.09;11300928;26;19998;-70
2024/04/28 09:58:52;;;;;;;0.00;0.00;;;;;;;-145.06;41.84;52422.41;11336113;26;20118;-72
2024/04/28 10:03:54;;;;;;;0.00;0.00;;;;;;;-145.06;42.63;52404.19;11310912;26;20010;-71
2024/04/28 10:08:56;;;;;;;0.00;0.00;;;;;;;-145.06;44.01;52385.97;11341297;26;20074;-69
2024/04/28 10:13:58;;;;;;;0.10;0.10;;;;;;;-145.06;43.81;52426.44;11300335;26;20013;-70
2024/04/28 10:18:58;;;;;;;0.00;0.00;;;;;;;-145.06;45.53;52355.59;11370253;26;20370;-70
2024/04/28 10:24:05;;;;;;;0.10;0.10;;;;;;;-145.06;45.09;52385.97;11307119;26;20095;-70
2024/04/28 10:29:12;;;;;;;0.00;0.00;;;;;;;-145.06;44.53;52398.09;11331114;26;19997;-69
2024/04/28 10:34:20;;;;;;;0.10;0.10;;;;;;;-145.06;45.81;52392.03;11321048;25;20007;-70
2024/04/28 10:39:34;;;;;;;0.00;0.00;;;;;;;-145.06;46.66;52379.88;11295532;26;20015;-70
2024/04/28 10:44:35;;;;;;;0.00;0.00;;;;;;;-145.06;49.89;52304.97;11317983;26;20002;-70
2024/04/28 10:49:35;;;;;;;0.00;0.00;;;;;;;-145.06;50.83;52304.97;11314895;26;20362;-70
2024/04/28 10:54:35;;;;;;;0.00;0.00;;;;;;;-145.06;47.82;52385.97;11302867;26;20071;-69
2024/04/28 10:59:36;;;;;;;0.00;0.00;;;;;;;-145.06;49.94;52345.47;11318440;26;20012;-70
2024/04/28 11:04:37;;;;;;;0.10;0.10;;;;;;;-145.06;51.99;52298.91;11307934;26;19998;-70
2024/04/28 11:09:38;;;;;;;0.10;0.10;;;;;;;-145.06;53.63;52319.16;11316223;26;20069;-71
2024/04/28 11:14:38;;;;;;;0.00;0.00;;;;;;;-145.06;53.16;52351.53;11309811;26;20356;-69
2024/04/28 11:19:39;;;;;;;0.00;0.00;;;;;;;-145.06;48.40;52466.94;11304631;26;19999;-69
2024/04/28 11:24:40;;;;;;;0.00;0.00;;;;;;;-145.06;50.70;52458.84;11307852;26;20009;-70
2024/04/28 11:29:46;;;;;;;0.10;0.10;;;;;;;-145.06;51.41;52495.28;11290683;26;20034;-69
2024/04/28 11:34:46;;;;;;;0.03;0.03;;;;;;;-145.06;49.89;52475.03;11300810;26;20031;-70
2024/04/28 11:39:47;;;;;;;0.00;0.00;;;;;;;-145.06;50.15;52473.00;11331288;26;20008;-70
2024/04/28 11:44:48;;;;;;;0.10;0.10;;;;;;;-145.06;48.87;52481.09;11312592;26;20598;-70
2024/04/28 11:49:48;;;;;;;0.00;0.00;;;;;;;-145.06;50.17;52458.84;11301948;26;20013;-69
2024/04/28 11:54:48;;;;;;;0.00;0.00;;;;;;;-145.06;48.90;52446.69;11315635;26;19999;-72
2024/04/28 11:59:51;;;;;;;0.00;0.00;;;;;;;-145.06;47.95;52462.88;11308097;26;20003;-72
2024/04/28 12:04:51;;;;;;;0.00;0.00;;;;;;;-145.06;46.98;52444.66;11310272;26;20014;-72
2024/04/28 12:09:51;;;;;;;0.10;0.10;;;;;;;-145.06;48.08;52418.34;11323924;26;20443;-72
2024/04/28 12:14:52;;;;;;;0.10;0.10;;;;;;;-145.06;48.25;52412.28;11311335;26;20347;-72
2024/04/28 12:19:52;;;;;;;0.00;0.00;;;;;;;-145.06;48.94;52371.78;11323957;26;20018;-72
2024/04/28 12:24:52;;;;;;;0.00;0.00;;;;;;;-145.06;48.57;52379.88;11313448;26;20078;-72
2024/04/28 12:29:53;;;;;;;0.00;0.00;;;;;;;-145.06;46.79;52448.72;11314560;26;20010;-74
2024/04/28 12:34:53;;;;;;;0.00;0.00;;;;;;;-145.06;49.06;52355.59;11311502;26;20007;-73
2024/04/28 12:39:54;;;;;;;0.10;0.10;;;;;;;-145.06;49.29;52337.38;11319154;26;20013;-72
2024/04/28 12:44:54;;;;;;;0.00;0.00;;;;;;;-145.06;48.64;52290.81;11310561;26;20009;-71
2024/04/28 12:49:55;;;;;;;0.00;0.00;;;;;;;-145.06;48.78;52246.28;11306914;26;20068;-72
2024/04/28 12:54:55;;;;;;;0.00;0.00;;;;;;;-145.06;46.40;52349.50;11297446;26;20409;-72
2024/04/28 12:59:55;;;;;;;0.00;0.00;;;;;;;-145.06;49.97;52230.09;11300777;26;20336;-72
2024/04/28 13:04:55;;;;;;;0.00;0.00;;;;;;;-145.06;48.76;52240.19;11310988;26;20355;-72
2024/04/28 13:09:56;;;;;;;0.00;0.00;;;;;;;-145.06;46.42;52309.03;11307735;26;20009;-72
2024/04/28 13:14:56;;;;;;;0.03;0.03;;;;;;;-145.06;47.70;52284.75;11297948;26;19995;-73
2024/04/28 13:19:56;;;;;;;0.10;0.10;;;;;;;-145.06;47.19;52327.25;11310573;26;20009;-72
2024/04/28 13:24:57;;;;;;;0.07;0.07;;;;;;;-145.06;47.49;52294.84;11312973;26;20484;-73
2024/04/28 13:29:57;;;;;;;0.10;0.10;;;;;;;-145.06;46.63;52335.34;11313802;26;20379;-73
2024/04/28 13:34:57;;;;;;;0.00;0.00;;;;;;;-145.06;48.47;52323.19;11293394;26;20013;-72
2024/04/28 13:39:57;;;;;;;0.00;0.00;;;;;;;-145.06;47.62;52315.09;11317361;26;20417;-72
2024/04/28 13:44:58;;;;;;;0.10;0.10;;;;;;;-145.06;46.64;52304.97;11318031;26;20041;-74
2024/04/28 13:50:01;;;;;;;0.08;0.08;;;;;;;-145.06;47.92;52282.72;11327753;26;19998;-73
2024/04/28 13:55:01;;;;;;;;;;;;;;;-145.06;48.05;52294.84;11315245;26;20010;-71
2024/04/28 14:00:02;;;;;;;0.00;0.00;;;;;;;-145.06;47.04;52377.84;11309016;26;20028;-72
2024/04/28 14:05:03;;;;;;;0.10;0.10;;;;;;;-145.06;46.97;52381.91;11306784;26;20017;-73
2024/04/28 14:10:04;;;;;;;0.10;0.10;;;;;;;-145.06;46.16;52412.28;11313026;26;20344;-72
2024/04/28 14:15:05;;;;;;;0.00;0.00;;;;;;;-145.06;47.57;52379.88;11317737;26;20003;-72
2024/04/28 14:20:06;;;;;;;0.00;0.00;;;;;;;-145.06;46.21;52444.66;11312662;26;20337;-73
2024/04/28 14:25:07;;;;;;;0.00;0.00;;;;;;;-145.06;47.62;52438.59;11302451;26;20002;-72
2024/04/28 14:30:08;;;;;;;0.10;0.10;;;;;;;-145.06;47.75;52442.63;11285141;26;20064;-73
2024/04/28 14:35:11;;;;;;;0.00;0.00;;;;;;;-145.06;46.79;52456.81;11296686;26;20408;-73
2024/04/28 14:40:11;;;;;;;0.00;0.00;;;;;;;-145.06;45.95;52491.22;11311301;26;19994;-72
2024/04/28 14:45:12;;;;;;;0.10;0.10;;;;;;;-145.06;47.49;52446.69;11305229;26;19995;-73
2024/04/28 14:50:14;;;;;;;0.10;0.10;;;;;;;-145.06;48.64;52398.09;11296334;26;20091;-73
2024/04/28 14:55:14;;;;;;;0.00;0.00;;;;;;;-145.06;46.43;52515.53;11323547;26;20018;-72
2024/04/28 15:00:16;;;;;;;0.10;0.10;;;;;;;-145.06;46.38;52491.22;11306948;26;20459;-72
2024/04/28 15:05:20;;;;;;;0.08;0.08;;;;;;;-145.06;47.28;52505.41;11311972;26;20078;-72
2024/04/28 15:10:21;;;;;;;0.00;0.00;;;;;;;-145.06;47.15;52529.69;11318646;26;20085;-71
2024/04/28 15:15:21;;;;;;;0.00;0.00;;;;;;;-145.06;47.14;52519.56;11294927;26;19994;-71
2024/04/28 15:20:21;;;;;;;0.00;0.00;;;;;;;-145.06;48.23;52533.75;11304050;26;20304;-72
2024/04/28 15:25:22;;;;;;;0.10;0.10;;;;;;;-145.06;48.48;52537.78;11288312;26;19998;-73
2024/04/28 15:30:22;;;;;;;0.10;0.10;;;;;;;-145.06;47.93;52556.00;11319712;26;20010;-73
2024/04/28 15:35:22;;;;;;;0.00;0.00;;;;;;;-145.06;47.42;52566.13;11327632;26;20029;-72
2024/04/28 15:40:23;;;;;;;0.00;0.00;;;;;;;-145.06;49.11;52535.75;11288153;26;20002;-73
2024/04/28 15:45:23;;;;;;;0.10;0.10;;;;;;;-145.06;48.99;52537.78;11292255;26;19994;-73
2024/04/28 15:50:23;;;;;;;0.00;0.00;;;;;;;-145.06;49.06;52556.00;11290782;26;20443;-73
2024/04/28 15:55:24;;;;;;;0.10;0.10;;;;;;;-145.06;48.82;52551.97;11323211;26;20289;-72
2024/04/28 16:00:24;;;;;;;0.10;0.10;;;;;;;-145.06;49.80;52551.97;11330046;26;20067;-72
2024/04/28 16:05:25;;;;;;;0.00;0.00;;;;;;;-145.06;49.43;52551.97;11313706;26;20007;-72
2024/04/28 16:10:27;;;;;;;0.00;0.00;;;;;;;-145.06;51.47;52519.56;11314184;26;20062;-72
2024/04/28 16:15:27;;;;;;;0.00;0.00;;;;;;;-145.06;49.29;52594.47;11327983;26;20014;-73
2024/04/28 16:20:27;;;;;;;0.10;0.10;;;;;;;-145.06;50.70;52537.78;11304591;26;20006;-73
2024/04/28 16:25:27;;;;;;;0.10;0.10;;;;;;;-145.06;52.80;52501.34;11305879;26;20522;-72
2024/04/28 16:30:28;;;;;;;0.10;0.10;;;;;;;-145.06;52.49;52517.53;11322189;26;20009;-72
2024/04/28 16:35:28;;;;;;;0.10;0.10;;;;;;;-145.06;54.34;52509.44;11294827;26;20519;-72
2024/04/28 16:40:28;;;;;;;0.00;0.00;;;;;;;-145.06;56.15;52507.41;11299400;26;19998;-73
2024/04/28 16:45:29;;;;;;;0.00;0.00;;;;;;;-145.06;56.34;52517.53;11309112;26;20013;-72
2024/04/28 16:50:29;;;;;;;0.10;0.10;;;;;;;-145.06;55.37;52529.69;11320089;26;20006;-72
2024/04/28 16:55:29;;;;;;;0.00;0.00;;;;;;;-145.06;54.37;52549.94;11319611;26;19998;-72
2024/04/28 17:00:31;;;;;;;0.10;0.10;;;;;;;-145.06;51.95;52582.31;11325367;26;19998;-72
2024/04/28 17:05:32;;;;;;;0.00;0.00;;;;;;;-145.06;52.24;52543.84;11336280;26;19995;-72
2024/04/28 17:10:32;;;;;;;0.10;0.10;;;;;;;-145.06;49.76;52645.09;11327397;26;20475;-72
2024/04/28 17:15:32;;;;;;;0.10;0.10;;;;;;;-145.06;50.02;52626.88;11323682;26;20030;-72
2024/04/28 17:20:32;;;;;;;0.00;0.00;;;;;;;-145.06;50.98;52641.03;11288912;26;20355;-72
2024/04/28 17:25:33;;;;;;;0.00;0.00;;;;;;;-145.06;50.87;52677.47;11290548;26;20010;-72
2024/04/28 17:30:35;;;;;;;0.00;0.00;;;;;;;-145.06;49.09;52709.88;11284651;26;20075;-72
2024/04/28 17:35:36;;;;;;;0.00;0.00;;;;;;;-145.06;49.96;52711.91;11299001;26;20439;-72
2024/04/28 17:40:36;;;;;;;0.10;0.10;;;;;;;-145.06;47.26;52752.38;11294731;26;19994;-73
2024/04/28 17:45:39;;;;;;;0.00;0.00;;;;;;;-145.06;48.33;52770.59;11309255;26;20364;-72
2024/04/28 17:50:39;;;;;;;0.10;0.10;;;;;;;-145.06;50.20;52746.31;11296075;26;20006;-73
2024/04/28 17:55:39;;;;;;;0.10;0.10;;;;;;;-145.06;50.85;52764.53;11298240;26;20010;-73
2024/04/28 18:00:40;;;;;;;0.00;0.00;;;;;;;-145.06;51.77;52734.16;11299902;26;20075;-73
2024/04/28 18:05:40;;;;;;;0.00;0.00;;;;;;;-145.06;51.32;52754.41;11311565;26;19999;-72
2024/04/28 18:10:42;;;;;;;0.00;0.00;;;;;;;-145.06;52.03;52726.06;11303180;26;20013;-72
2024/04/28 18:15:44;;;;;;;0.00;0.00;;;;;;;-145.06;52.46;52754.41;11295172;26;20089;-72
2024/04/28 18:20:44;;;;;;;0.00;0.00;;;;;;;-145.06;52.05;52770.59;11291927;26;20054;-73
2024/04/28 18:25:47;;;;;;;0.00;0.00;;;;;;;-145.06;52.17;52790.84;11287048;26;20319;-72
2024/04/28 18:30:47;;;;;;;0.10;0.10;;;;;;;-145.06;52.61;52782.75;11292150;26;20340;-73
2024/04/28 18:35:48;;;;;;;0.00;0.00;;;;;;;-145.06;53.92;52766.56;11296286;26;20005;-73
2024/04/28 18:40:48;;;;;;;0.10;0.10;;;;;;;-145.06;53.54;52754.41;11285480;26;20010;-72
2024/04/28 18:45:49;;;;;;;0.10;0.10;;;;;;;-145.06;54.32;52788.84;11283515;26;20485;-72
2024/04/28 18:50:50;;;;;;;0.00;0.00;;;;;;;-145.06;55.75;52758.47;11283314;26;20410;-72
2024/04/28 18:55:50;;;;;;;0.10;0.10;;;;;;;-145.06;57.56;52782.75;11285019;26;19995;-75
2024/04/28 19:00:50;;;;;;;0.10;0.10;;;;;;;-145.06;57.89;52778.72;11285344;26;20006;-75
2024/04/28 19:05:51;;;;;;;0.00;0.00;;;;;;;-145.06;58.99;52774.66;11282178;26;20059;-73
2024/04/28 19:10:52;;;;;;;0.00;0.00;;;;;;;-145.06;59.87;52790.84;11291992;26;20336;-73
2024/04/28 19:16:00;;;;;;;0.10;0.10;;;;;;;-145.06;60.83;52796.94;11292376;26;20310;-72
2024/04/28 19:21:00;;;;;;;0.00;0.00;;;;;;;-145.06;61.94;52774.66;11289152;26;20444;-76
2024/04/28 19:26:00;;;;;;;0.10;0.10;;;;;;;-145.06;61.78;52790.84;11300443;26;20058;-72
2024/04/28 19:31:01;;;;;;;0.10;0.10;;;;;;;-145.06;59.50;52811.09;11300761;26;20025;-72
2024/04/28 19:36:01;;;;;;;0.00;0.00;;;;;;;-145.06;59.84;52823.25;11297678;26;19995;-72
2024/04/28 19:41:04;;;;;;;0.00;0.00;;;;;;;-145.06;59.38;52811.09;11301572;26;19995;-72
2024/04/28 19:46:05;;;;;;;0.00;0.00;;;;;;;-145.06;59.40;52819.19;11289716;26;20003;-75
2024/04/28 19:51:05;;;;;;;0.10;0.10;;;;;;;-145.06;58.80;52835.41;11294160;26;20006;-73
2024/04/28 19:56:05;;;;;;;0.10;0.10;;;;;;;-145.06;59.04;52835.41;11309057;26;19998;-72
2024/04/28 20:01:06;;;;;;;0.00;0.00;;;;;;;-145.06;58.89;52839.44;11299063;26;20006;-72
2024/04/28 20:06:08;;;;;;;0.10;0.10;;;;;;;-145.06;60.48;52837.41;11290099;26;19999;-71
2024/04/28 20:11:09;;;;;;;0.10;0.10;;;;;;;-145.06;60.64;52849.56;11299430;26;20264;-72
2024/04/28 20:16:09;;;;;;;0.10;0.10;;;;;;;-145.06;60.68;52853.63;11296264;26;20130;-72
2024/04/28 20:21:14;;;;;;;0.00;0.00;;;;;;;-145.06;61.29;52867.78;11308105;26;20021;-72
2024/04/28 20:26:15;;;;;;;0.10;0.10;;;;;;;-145.06;60.96;52845.53;11296448;26;20362;-73
2024/04/28 20:31:25;;;;;;;0.00;0.00;;;;;;;-145.06;60.97;52847.53;11299240;26;20022;-72
2024/04/28 20:36:25;;;;;;;0.00;0.00;;;;;;;-145.06;61.67;52875.88;11312336;26;20020;-75
2024/04/28 20:41:26;;;;;;;0.00;0.00;;;;;;;-145.06;62.22;52863.75;11304955;26;19998;-72
2024/04/28 20:46:26;;;;;;;0.10;0.10;;;;;;;-145.06;63.70;52857.66;11297104;26;20002;-72
2024/04/28 20:51:26;;;;;;;0.00;0.00;;;;;;;-145.06;65.19;52886.00;11304623;26;20327;-72
2024/04/28 20:56:27;;;;;;;0.08;0.08;;;;;;;-145.06;66.93;52904.22;11305591;26;20002;-72
2024/04/28 21:01:27;;;;;;;0.10;0.10;;;;;;;-145.06;67.93;52863.75;11304840;26;20156;-72
2024/04/28 21:06:28;;;;;;;0.00;0.00;;;;;;;-145.06;69.26;52863.75;11302513;26;20061;-71
2024/04/28 21:11:28;;;;;;;0.00;0.00;;;;;;;-145.06;69.97;52914.34;11304596;26;19998;-72
2024/04/28 21:16:28;;;;;;;0.10;0.10;;;;;;;-145.06;69.16;52859.69;11318478;26;20005;-72
2024/04/28 21:21:29;;;;;;;0.10;0.10;;;;;;;-145.06;68.98;52884.00;11313290;26;20006;-72
2024/04/28 21:26:29;;;;;;;0.10;0.10;;;;;;;-145.06;69.84;52877.91;11300274;26;20017;-72
2024/04/28 21:31:29;;;;;;;0.10;0.10;;;;;;;-145.06;69.50;52892.09;11295325;26;20002;-72
2024/04/28 21:36:33;;;;;;;0.10;0.10;;;;;;;-145.06;70.90;52875.88;11298361;26;20002;-73
2024/04/28 21:41:33;;;;;;;0.10;0.10;;;;;;;-145.06;71.53;52904.22;11300691;26;20470;-72
2024/04/28 21:46:35;;;;;;;0.00;0.00;;;;;;;-145.06;71.90;52877.91;11297598;26;20013;-73
2024/04/28 21:51:35;;;;;;;0.10;0.10;;;;;;;-145.06;73.27;52892.09;11297051;26;20002;-72
2024/04/28 21:56:36;;;;;;;0.10;0.10;;;;;;;-145.06;73.77;52914.34;11299506;26;19999;-72
2024/04/28 22:01:36;;;;;;;0.10;0.10;;;;;;;-145.06;71.19;52904.22;11296337;26;20003;-72
2024/04/28 22:06:36;;;;;;;0.10;0.10;;;;;;;-145.06;71.26;52906.25;11302790;26;20006;-73
2024/04/28 22:11:36;;;;;;;0.00;0.00;;;;;;;-145.06;69.90;52946.75;11306893;26;20013;-72
2024/04/28 22:16:37;;;;;;;0.10;0.10;;;;;;;-145.06;69.30;52940.69;11306213;26;20133;-73
2024/04/28 22:21:37;;;;;;;0.10;0.10;;;;;;;-145.06;68.94;52975.09;11297091;26;20425;-72
2024/04/28 22:26:37;;;;;;;0.10;0.10;;;;;;;-145.06;69.00;52987.25;11307255;26;20463;-73
2024/04/28 22:31:38;;;;;;;0.10;0.10;;;;;;;-145.06;69.29;52997.38;11294069;26;20022;-73
2024/04/28 22:36:38;;;;;;;0.10;0.10;;;;;;;-145.06;69.55;52979.16;11311147;26;20371;-73
2024/04/28 22:41:38;;;;;;;0.10;0.10;;;;;;;-145.06;70.57;52981.16;11305750;26;20239;-72
2024/04/28 22:46:39;;;;;;;0.10;0.10;;;;;;;-145.06;71.21;52985.22;11304854;26;20101;-71